Time;durP1;ratioP1;P1;durP2;ratioP2;P2;SDS_P1;SDS_P2;PMS_P1;PMS_P2;Temp;Humidity;BMP_temperature;BMP_pressure;BME280_temperature;BME280_humidity;BME280_pressure;Samples;Min_cycle;Max_cycle;Signal;HPM_P1;HPM_P2
2023/04/01 00:02:22;;;;;;;5.30;1.60;;;;;10.70;96984.00;;;;5016523;28;20046;-59
2023/04/01 00:04:49;;;;;;;3.78;1.48;;;;;10.70;96974.00;;;;5015232;28;20173;-59
2023/04/01 00:07:16;;;;;;;1.70;0.82;;;;;10.70;96973.00;;;;5013749;28;20042;-59
2023/04/01 00:09:43;;;;;;;4.10;1.23;;;;;10.70;96974.00;;;;5014423;28;20112;-61
2023/04/01 00:12:09;;;;;;;4.75;1.20;;;;;10.70;96977.00;;;;5014935;28;20046;-60
2023/04/01 00:14:36;;;;;;;3.17;1.00;;;;;10.70;96966.00;;;;5013420;28;20049;-61
2023/04/01 00:17:03;;;;;;;4.53;1.00;;;;;10.60;96967.00;;;;5029657;28;20056;-60
2023/04/01 00:19:31;;;;;;;3.90;1.50;;;;;10.60;96966.00;;;;5013956;28;20107;-60
2023/04/01 00:21:58;;;;;;;3.33;1.35;;;;;10.70;96958.00;;;;5014545;28;20038;-57
2023/04/01 00:24:25;;;;;;;5.00;1.30;;;;;10.70;96964.00;;;;5029533;28;20316;-57
2023/04/01 00:26:52;;;;;;;3.88;1.20;;;;;10.60;96968.00;;;;5014254;28;20518;-58
2023/04/01 00:29:18;;;;;;;2.60;1.00;;;;;10.70;96964.00;;;;5013711;28;20065;-59
2023/04/01 00:31:45;;;;;;;9.05;1.90;;;;;10.70;96962.00;;;;5013952;28;20049;-59
2023/04/01 00:34:12;;;;;;;4.88;1.50;;;;;10.70;96964.00;;;;5014393;28;20077;-56
2023/04/01 00:36:39;;;;;;;6.45;1.77;;;;;10.70;96965.00;;;;5014148;28;20049;-58
2023/04/01 00:39:05;;;;;;;5.32;1.17;;;;;10.70;96958.00;;;;5013424;28;20046;-58
2023/04/01 00:41:32;;;;;;;3.17;1.33;;;;;10.70;96964.00;;;;5013809;28;20081;-59
2023/04/01 00:44:17;;;;;;;6.28;1.20;;;;;10.70;96962.00;;;;5013942;28;20049;-58
2023/04/01 00:46:44;;;;;;;4.45;1.10;;;;;10.70;96957.00;;;;5012607;28;20054;-60
2023/04/01 00:49:12;;;;;;;6.70;1.48;;;;;10.70;96974.00;;;;5012171;28;20054;-57
2023/04/01 00:51:40;;;;;;;2.83;1.08;;;;;10.70;96969.00;;;;5013993;28;20057;-57
2023/04/01 00:54:08;;;;;;;3.03;1.05;;;;;10.70;96965.00;;;;5012737;28;20042;-58
2023/04/01 00:56:36;;;;;;;4.30;1.50;;;;;10.70;96974.00;;;;5011622;28;20570;-56
2023/04/01 00:59:10;;;;;;;4.65;1.23;;;;;10.70;96965.00;;;;5012130;28;20073;-57
2023/04/01 01:01:37;;;;;;;6.10;1.23;;;;;10.70;96966.00;;;;5012409;28;20046;-58
2023/04/01 01:04:04;;;;;;;3.40;1.20;;;;;10.70;96958.00;;;;5012600;28;20049;-61
2023/04/01 01:06:47;;;;;;;3.13;1.20;;;;;10.70;96956.00;;;;5012589;28;20502;-61
2023/04/01 01:09:20;;;;;;;4.65;1.52;;;;;10.70;96961.00;;;;5011792;28;20049;-60
2023/04/01 01:12:11;;;;;;;3.10;1.27;;;;;10.70;96960.00;;;;5013646;28;20104;-60
2023/04/01 01:14:37;;;;;;;5.57;1.40;;;;;10.60;96958.00;;;;5012394;28;20304;-60
2023/04/01 01:17:23;;;;;;;5.80;1.10;;;;;10.60;96953.00;;;;5015732;28;20053;-63
2023/04/01 01:20:09;;;;;;;3.55;1.13;;;;;10.60;96954.00;;;;5016433;28;20073;-62
2023/04/01 01:23:15;;;;;;;7.20;1.30;;;;;10.70;96951.00;;;;5017288;28;20574;-60
2023/04/01 01:26:05;;;;;;;5.32;1.58;;;;;10.60;96959.00;;;;5012446;28;20053;-59
2023/04/01 01:28:46;;;;;;;6.38;1.40;;;;;10.70;96944.00;;;;5016939;28;20046;-59
2023/04/01 01:31:30;;;;;;;3.67;1.50;;;;;10.60;96961.00;;;;5023213;28;20042;-59
2023/04/01 01:34:28;;;;;;;3.20;1.20;;;;;10.50;96959.00;;;;5017326;28;20052;-59
2023/04/01 01:36:59;;;;;;;5.80;1.38;;;;;10.40;96953.00;;;;5013157;28;20073;-59
2023/04/01 01:39:30;;;;;;;3.33;1.30;;;;;10.50;96963.00;;;;5011183;28;20060;-59
2023/04/01 01:42:00;;;;;;;6.93;1.33;;;;;10.50;96949.00;;;;5012587;28;20480;-58
2023/04/01 01:44:30;;;;;;;5.85;1.98;;;;;10.50;96937.00;;;;4995827;28;20050;-59
2023/04/01 01:46:57;;;;;;;5.93;1.50;;;;;10.40;96943.00;;;;5012990;28;20049;-59
2023/04/01 01:49:25;;;;;;;5.30;1.40;;;;;10.40;96940.00;;;;5011413;28;20042;-59
2023/04/01 01:51:52;;;;;;;6.13;1.50;;;;;10.40;96946.00;;;;5011592;28;20081;-59
2023/04/01 01:54:19;;;;;;;4.97;1.33;;;;;10.40;96949.00;;;;5013116;28;20042;-57
2023/04/01 01:56:49;;;;;;;6.15;1.27;;;;;10.30;96949.00;;;;5011671;28;20050;-56
2023/04/01 01:59:20;;;;;;;4.57;1.30;;;;;10.30;96946.00;;;;5010902;28;20129;-56
2023/04/01 02:01:53;;;;;;;4.88;1.30;;;;;10.20;96939.00;;;;5011788;28;20463;-56
2023/04/01 02:04:21;;;;;;;5.47;1.33;;;;;10.20;96946.00;;;;5011799;28;20049;-58
2023/04/01 02:07:04;;;;;;;6.35;1.42;;;;;10.20;96933.00;;;;5011361;28;20507;-59
2023/04/01 02:09:33;;;;;;;3.42;1.35;;;;;10.20;96935.00;;;;5010700;28;20042;-58
2023/04/01 02:12:06;;;;;;;4.13;1.30;;;;;10.20;96936.00;;;;5011294;28;20132;-57
2023/04/01 02:14:44;;;;;;;3.20;1.88;;;;;10.20;96941.00;;;;5011292;28;20100;-58
2023/04/01 02:17:20;;;;;;;6.72;1.73;;;;;10.20;96944.00;;;;5011241;28;20074;-57
2023/04/01 02:19:54;;;;;;;3.40;1.55;;;;;10.20;96939.00;;;;5010825;28;20049;-59
2023/04/01 02:22:27;;;;;;;7.95;2.55;;;;;10.20;96935.00;;;;5027793;28;20049;-58
2023/04/01 02:24:59;;;;;;;4.20;1.50;;;;;10.20;96933.00;;;;5012411;28;20569;-57
2023/04/01 02:27:25;;;;;;;8.55;1.33;;;;;10.20;96940.00;;;;5012517;28;20486;-57
2023/04/01 02:29:52;;;;;;;5.03;1.70;;;;;10.20;96927.00;;;;5011024;28;20450;-57
2023/04/01 02:32:20;;;;;;;7.10;1.30;;;;;10.10;96937.00;;;;5011021;28;20409;-57
2023/04/01 02:34:47;;;;;;;6.88;1.65;;;;;10.10;96939.00;;;;5010988;28;20060;-56
2023/04/01 02:37:15;;;;;;;6.18;1.30;;;;;10.00;96942.00;;;;5010997;28;20056;-56
2023/04/01 02:39:42;;;;;;;9.35;2.47;;;;;10.00;96931.00;;;;5011662;28;20046;-56
2023/04/01 02:42:10;;;;;;;2.47;1.17;;;;;10.10;96943.00;;;;5012597;28;20057;-59
2023/04/01 02:44:36;;;;;;;6.13;1.42;;;;;10.00;96930.00;;;;5012227;28;20044;-58
2023/04/01 02:47:03;;;;;;;4.55;1.48;;;;;10.10;96927.00;;;;5012167;28;20053;-56
2023/04/01 02:49:30;;;;;;;3.80;1.13;;;;;10.10;96922.00;;;;5026872;28;20046;-58
2023/04/01 02:51:56;;;;;;;4.57;1.20;;;;;10.10;96933.00;;;;5012265;28;20132;-56
2023/04/01 02:54:23;;;;;;;6.47;1.40;;;;;10.10;96928.00;;;;5012060;28;20042;-57
2023/04/01 02:56:49;;;;;;;3.75;1.88;;;;;10.10;96915.00;;;;5010817;28;20056;-61
2023/04/01 02:59:16;;;;;;;5.38;1.33;;;;;10.10;96917.00;;;;5011592;28;20044;-56
2023/04/01 03:01:43;;;;;;;6.35;2.55;;;;;10.10;96927.00;;;;5010650;28;20045;-59
2023/04/01 03:04:09;;;;;;;6.57;1.35;;;;;10.10;96923.00;;;;5011316;28;20049;-58
2023/04/01 03:06:36;;;;;;;4.32;1.10;;;;;10.10;96923.00;;;;5011723;28;20406;-60
2023/04/01 03:09:03;;;;;;;4.28;1.17;;;;;10.10;96913.00;;;;5010782;28;20454;-58
2023/04/01 03:11:29;;;;;;;7.20;1.80;;;;;10.10;96917.00;;;;5011504;28;20057;-59
2023/04/01 03:13:56;;;;;;;6.97;1.55;;;;;10.10;96920.00;;;;5012040;28;20399;-60
2023/04/01 03:16:22;;;;;;;5.47;1.30;;;;;10.10;96913.00;;;;5010391;28;20050;-59
2023/04/01 03:18:52;;;;;;;3.17;1.33;;;;;10.10;96921.00;;;;5011040;28;20168;-60
2023/04/01 03:21:23;;;;;;;4.95;1.40;;;;;10.00;96923.00;;;;5014395;28;20045;-59
2023/04/01 03:23:50;;;;;;;3.85;1.30;;;;;10.10;96920.00;;;;5014848;28;20054;-59
2023/04/01 03:26:17;;;;;;;10.82;1.95;;;;;10.00;96920.00;;;;5016086;28;20065;-60
2023/04/01 03:28:44;;;;;;;6.38;1.50;;;;;10.10;96920.00;;;;5013553;28;20112;-60
2023/04/01 03:31:11;;;;;;;5.88;1.90;;;;;10.10;96913.00;;;;5014181;28;20045;-59
2023/04/01 03:33:45;;;;;;;3.63;1.48;;;;;10.10;96914.00;;;;5014158;28;20507;-60
2023/04/01 03:36:12;;;;;;;4.47;1.17;;;;;10.10;96916.00;;;;5015272;28;20044;-60
2023/04/01 03:38:42;;;;;;;4.50;1.17;;;;;10.10;96910.00;;;;5014995;28;20125;-60
2023/04/01 03:41:16;;;;;;;7.72;1.70;;;;;10.10;96905.00;;;;5013714;28;20046;-60
2023/04/01 03:43:43;;;;;;;5.82;1.58;;;;;10.10;96906.00;;;;5014373;28;20053;-60
2023/04/01 03:46:11;;;;;;;6.47;1.40;;;;;10.10;96904.00;;;;5014265;28;20041;-60
2023/04/01 03:48:37;;;;;;;7.03;1.20;;;;;10.10;96908.00;;;;5030574;28;20434;-60
2023/04/01 03:51:08;;;;;;;4.57;1.27;;;;;10.10;96915.00;;;;5014957;28;20046;-60
2023/04/01 03:53:35;;;;;;;5.38;1.08;;;;;10.10;96915.00;;;;5014683;28;20104;-60
2023/04/01 03:56:05;;;;;;;5.47;1.70;;;;;10.00;96918.00;;;;5017101;28;20049;-60
2023/04/01 03:58:34;;;;;;;4.32;1.48;;;;;10.00;96905.00;;;;5017257;28;20049;-59
2023/04/01 04:01:02;;;;;;;3.95;1.48;;;;;10.00;96908.00;;;;5017154;28;20415;-59
2023/04/01 04:03:31;;;;;;;6.47;1.75;;;;;10.00;96908.00;;;;5017523;28;20422;-59
2023/04/01 04:05:57;;;;;;;5.57;1.48;;;;;10.00;96910.00;;;;5017742;28;20053;-59
2023/04/01 04:08:24;;;;;;;2.10;1.02;;;;;9.90;96902.00;;;;5015270;28;20057;-59
2023/04/01 04:10:55;;;;;;;5.75;1.58;;;;;9.90;96906.00;;;;5016593;28;20100;-61
2023/04/01 04:13:22;;;;;;;5.18;1.23;;;;;9.80;96910.00;;;;5018152;28;20507;-60
2023/04/01 04:15:58;;;;;;;5.32;1.45;;;;;9.80;96919.00;;;;5019645;28;20504;-60
2023/04/01 04:18:25;;;;;;;4.07;1.33;;;;;9.80;96907.00;;;;5018896;28;20065;-59
2023/04/01 04:20:51;;;;;;;2.88;1.40;;;;;9.80;96916.00;;;;5018755;28;20052;-59
2023/04/01 04:23:19;;;;;;;6.05;1.30;;;;;9.70;96901.00;;;;5018887;28;20133;-61
2023/04/01 04:25:59;;;;;;;3.05;1.30;;;;;9.70;96915.00;;;;5019852;28;20514;-59
2023/04/01 04:28:27;;;;;;;4.65;1.40;;;;;9.70;96914.00;;;;5020351;28;20117;-59
2023/04/01 04:30:56;;;;;;;2.65;1.38;;;;;9.70;96908.00;;;;5020835;28;20105;-59
2023/04/01 04:33:23;;;;;;;4.90;1.35;;;;;9.70;96911.00;;;;5020323;28;20049;-59
2023/04/01 04:35:54;;;;;;;9.93;2.03;;;;;9.70;96899.00;;;;5019473;28;20097;-58
2023/04/01 04:38:22;;;;;;;5.20;1.10;;;;;9.70;96912.00;;;;5035695;28;20049;-59
2023/04/01 04:40:48;;;;;;;3.33;1.17;;;;;9.70;96921.00;;;;5020045;28;20050;-59
2023/04/01 04:43:17;;;;;;;9.40;2.72;;;;;9.70;96909.00;;;;5036560;28;20049;-58
2023/04/01 04:45:44;;;;;;;9.27;2.30;;;;;9.70;96915.00;;;;5019017;28;20163;-59
2023/04/01 04:48:16;;;;;;;4.05;1.20;;;;;9.70;96905.00;;;;5019300;28;20046;-59
2023/04/01 04:50:42;;;;;;;4.43;1.80;;;;;9.70;96915.00;;;;5017637;28;20054;-59
2023/04/01 04:53:10;;;;;;;4.65;1.25;;;;;9.70;96904.00;;;;5019275;28;20141;-60
2023/04/01 04:55:37;;;;;;;5.28;1.20;;;;;9.70;96903.00;;;;5018689;28;20077;-59
2023/04/01 04:58:18;;;;;;;4.28;1.48;;;;;9.70;96906.00;;;;5017267;28;20045;-59
2023/04/01 05:00:46;;;;;;;5.03;1.50;;;;;9.70;96897.00;;;;5016731;28;20052;-58
2023/04/01 05:03:20;;;;;;;2.72;1.30;;;;;9.70;96913.00;;;;5016584;28;20052;-59
2023/04/01 05:05:53;;;;;;;4.72;1.30;;;;;9.70;96902.00;;;;5017385;28;20052;-59
2023/04/01 05:08:20;;;;;;;3.88;1.10;;;;;9.70;96902.00;;;;5016487;28;20066;-60
2023/04/01 05:10:47;;;;;;;7.45;1.50;;;;;9.70;96891.00;;;;5014860;28;20081;-59
2023/04/01 05:13:14;;;;;;;2.40;1.08;;;;;9.70;96903.00;;;;5017812;28;20038;-59
2023/04/01 05:15:45;;;;;;;4.05;1.70;;;;;9.70;96898.00;;;;5000817;28;20052;-59
2023/04/01 05:18:12;;;;;;;3.75;1.13;;;;;9.70;96885.00;;;;5016086;28;20100;-60
2023/04/01 05:20:39;;;;;;;3.38;1.30;;;;;9.70;96905.00;;;;5014961;28;20053;-58
2023/04/01 05:23:06;;;;;;;5.57;1.00;;;;;9.70;96900.00;;;;5016285;28;20107;-60
2023/04/01 05:25:32;;;;;;;4.07;1.17;;;;;9.70;96896.00;;;;5016716;28;20061;-59
2023/04/01 05:27:59;;;;;;;3.30;2.13;;;;;9.80;96899.00;;;;5016300;28;20061;-61
2023/04/01 05:30:26;;;;;;;3.50;1.23;;;;;9.80;96903.00;;;;5016661;28;20046;-58
2023/04/01 05:33:13;;;;;;;4.63;1.70;;;;;9.80;96897.00;;;;5005225;28;20423;-59
2023/04/01 05:35:40;;;;;;;3.50;1.23;;;;;9.70;96894.00;;;;5015700;28;20046;-58
2023/04/01 05:38:07;;;;;;;4.85;1.20;;;;;9.70;96897.00;;;;5014699;28;20056;-58
2023/04/01 05:40:34;;;;;;;6.13;1.60;;;;;9.70;96885.00;;;;5014576;28;20048;-58
2023/04/01 05:43:01;;;;;;;4.13;1.38;;;;;9.80;96888.00;;;;5014357;28;20046;-59
2023/04/01 05:45:28;;;;;;;3.00;1.20;;;;;9.80;96885.00;;;;5015310;28;20042;-59
2023/04/01 05:48:20;;;;;;;4.57;1.23;;;;;9.80;96876.00;;;;5012095;28;20598;-59
2023/04/01 05:50:47;;;;;;;4.20;1.35;;;;;9.90;96874.00;;;;5014371;28;20475;-60
2023/04/01 05:53:14;;;;;;;2.70;1.27;;;;;9.90;96873.00;;;;5012525;28;20052;-59
2023/04/01 05:55:42;;;;;;;3.42;1.85;;;;;9.90;96871.00;;;;5012744;28;20050;-59
2023/04/01 05:58:09;;;;;;;2.83;1.15;;;;;9.90;96869.00;;;;5013023;28;20507;-59
2023/04/01 06:00:38;;;;;;;4.05;1.45;;;;;9.90;96878.00;;;;4996023;28;20042;-58
2023/04/01 06:03:05;;;;;;;2.83;0.85;;;;;9.90;96881.00;;;;5012160;28;20561;-59
2023/04/01 06:05:39;;;;;;;3.60;1.10;;;;;9.90;96877.00;;;;5028563;28;20069;-59
2023/04/01 06:08:17;;;;;;;3.50;1.27;;;;;9.90;96887.00;;;;5012099;28;20355;-58
2023/04/01 06:11:01;;;;;;;3.75;1.17;;;;;9.90;96896.00;;;;5011789;28;20073;-60
2023/04/01 06:13:37;;;;;;;5.22;1.30;;;;;9.90;96880.00;;;;5013312;28;20050;-61
2023/04/01 06:16:22;;;;;;;2.08;1.02;;;;;9.90;96890.00;;;;5012979;28;20518;-59
2023/04/01 06:18:58;;;;;;;3.38;1.00;;;;;9.90;96886.00;;;;5012228;28;20521;-58
2023/04/01 06:21:56;;;;;;;4.57;1.17;;;;;9.90;96898.00;;;;5012801;28;20092;-60
2023/04/01 06:24:25;;;;;;;3.78;1.20;;;;;9.90;96894.00;;;;5011603;28;20514;-58
2023/04/01 06:27:01;;;;;;;1.90;1.00;;;;;9.90;96896.00;;;;5011392;28;20042;-60
2023/04/01 06:29:43;;;;;;;2.33;1.15;;;;;9.90;96910.00;;;;5010632;28;20050;-58
2023/04/01 06:32:41;;;;;;;2.97;1.20;;;;;9.80;96916.00;;;;5011227;28;20045;-58
2023/04/01 06:35:11;;;;;;;1.88;0.80;;;;;9.80;96906.00;;;;5011730;28;20474;-59
2023/04/01 06:37:57;;;;;;;4.35;0.95;;;;;9.90;96903.00;;;;5011720;28;20042;-61
2023/04/01 06:40:55;;;;;;;1.55;0.88;;;;;9.90;96904.00;;;;5010813;28;20049;-59
2023/04/01 06:43:42;;;;;;;3.15;0.90;;;;;9.90;96902.00;;;;5011586;28;20046;-60
2023/04/01 06:46:45;;;;;;;1.90;0.93;;;;;9.90;96895.00;;;;5013010;28;20466;-59
2023/04/01 06:50:00;;;;;;;1.85;0.80;;;;;10.00;96905.00;;;;5012266;28;20061;-59
2023/04/01 06:53:16;;;;;;;2.77;0.80;;;;;10.00;96890.00;;;;5012914;28;20069;-59
2023/04/01 06:55:53;;;;;;;2.85;1.02;;;;;10.10;96895.00;;;;5015307;28;20050;-60
2023/04/01 06:58:43;;;;;;;2.15;1.00;;;;;10.20;96891.00;;;;5005165;28;20088;-60
2023/04/01 07:01:16;;;;;;;1.98;0.90;;;;;10.30;96881.00;;;;5014514;28;20425;-58
2023/04/01 07:03:55;;;;;;;2.63;0.80;;;;;10.40;96882.00;;;;5031975;28;20057;-59
2023/04/01 07:06:31;;;;;;;3.70;1.02;;;;;10.50;96875.00;;;;5014912;28;20057;-59
2023/04/01 07:09:08;;;;;;;1.48;0.75;;;;;10.50;96871.00;;;;5014246;28;20056;-58
2023/04/01 07:12:03;;;;;;;2.00;0.77;;;;;10.60;96881.00;;;;4978810;28;20120;-59
2023/04/01 07:15:05;;;;;;;1.92;0.82;;;;;10.80;96885.00;;;;5016037;28;20084;-59
2023/04/01 07:17:35;;;;;;;1.92;0.80;;;;;10.90;96880.00;;;;5016062;28;20042;-58
2023/04/01 07:20:21;;;;;;;2.22;0.90;;;;;11.00;96881.00;;;;5013710;28;20050;-60
2023/04/01 07:22:56;;;;;;;2.72;0.80;;;;;11.00;96880.00;;;;5014754;28;20716;-60
2023/04/01 07:25:34;;;;;;;4.85;2.88;;;;;11.10;96883.00;;;;5014375;28;20474;-59
2023/04/01 07:28:36;;;;;;;2.45;0.88;;;;;11.10;96894.00;;;;5015218;28;20061;-58
2023/04/01 07:31:19;;;;;;;1.23;0.90;;;;;11.00;96902.00;;;;5014183;28;20133;-58
2023/04/01 07:34:24;;;;;;;1.75;0.93;;;;;11.00;96897.00;;;;5014341;28;20514;-59
2023/04/01 07:37:15;;;;;;;1.48;0.70;;;;;11.00;96912.00;;;;5014238;28;20074;-59
2023/04/01 07:39:45;;;;;;;3.35;1.17;;;;;11.00;96914.00;;;;5030043;28;20103;-60
2023/04/01 07:42:23;;;;;;;2.38;0.80;;;;;11.10;96915.00;;;;5014404;28;20049;-60
2023/04/01 07:45:03;;;;;;;1.90;0.70;;;;;11.00;96916.00;;;;5014378;28;20108;-60
2023/04/01 07:48:11;;;;;;;2.42;0.80;;;;;11.10;96916.00;;;;5014345;28;20050;-60
2023/04/01 07:50:47;;;;;;;1.08;0.70;;;;;11.10;96927.00;;;;5013364;28;20152;-59
2023/04/01 07:53:36;;;;;;;1.08;0.70;;;;;11.00;96925.00;;;;5013938;28;20042;-59
2023/04/01 07:56:17;;;;;;;1.55;0.70;;;;;11.00;96918.00;;;;5013957;28;20056;-60
2023/04/01 07:59:17;;;;;;;0.98;0.70;;;;;10.90;96929.00;;;;5013221;28;20070;-59
2023/04/01 08:02:22;;;;;;;1.40;0.68;;;;;11.00;96924.00;;;;5013441;28;20573;-61
2023/04/01 08:04:58;;;;;;;1.02;0.70;;;;;11.00;96929.00;;;;5013130;28;20046;-59
2023/04/01 08:07:37;;;;;;;1.45;0.60;;;;;11.00;96938.00;;;;5013763;28;20146;-60
2023/04/01 08:10:40;;;;;;;0.95;0.52;;;;;11.00;96929.00;;;;5014265;28;20509;-59
2023/04/01 08:13:38;;;;;;;0.70;0.50;;;;;11.10;96940.00;;;;5014950;28;20056;-60
2023/04/01 08:16:36;;;;;;;0.75;0.50;;;;;11.10;96933.00;;;;5014612;28;20141;-58
2023/04/01 08:19:44;;;;;;;0.50;0.50;;;;;11.20;96937.00;;;;5012046;28;20046;-60
2023/04/01 08:22:29;;;;;;;1.58;0.80;;;;;11.30;96943.00;;;;5013252;28;20076;-60
2023/04/01 08:25:02;;;;;;;2.03;0.82;;;;;11.40;96944.00;;;;5013232;28;20064;-59
2023/04/01 08:27:44;;;;;;;1.83;0.73;;;;;11.50;96942.00;;;;5013209;28;20050;-57
2023/04/01 08:30:20;;;;;;;0.98;0.50;;;;;11.60;96949.00;;;;5012549;28;20052;-59
2023/04/01 08:32:54;;;;;;;0.70;0.70;;;;;11.60;96945.00;;;;5013909;28;20499;-59
2023/04/01 08:35:39;;;;;;;0.50;0.50;;;;;11.70;96959.00;;;;5013893;28;20049;-59
2023/04/01 08:38:19;;;;;;;0.60;0.60;;;;;11.70;96948.00;;;;5014788;28;20495;-58
2023/04/01 08:40:51;;;;;;;1.05;0.77;;;;;11.70;96946.00;;;;5012538;28;20128;-59
2023/04/01 08:43:37;;;;;;;0.70;0.70;;;;;11.70;96955.00;;;;5014289;28;20049;-62
2023/04/01 08:46:19;;;;;;;1.35;0.60;;;;;11.70;96953.00;;;;5013085;28;20042;-57
2023/04/01 08:49:02;;;;;;;1.33;0.90;;;;;11.70;96958.00;;;;5028965;28;20056;-59
2023/04/01 08:52:02;;;;;;;2.33;0.60;;;;;11.70;96958.00;;;;5012872;28;20042;-59
2023/04/01 08:54:37;;;;;;;0.50;0.50;;;;;11.70;96967.00;;;;5014221;28;20048;-58
2023/04/01 08:57:21;;;;;;;0.45;0.40;;;;;11.80;96964.00;;;;5013673;28;20549;-59
2023/04/01 09:00:46;;;;;;;0.70;0.60;;;;;11.90;96962.00;;;;5013672;28;20127;-58
2023/04/01 09:03:46;;;;;;;0.60;0.60;;;;;11.90;96963.00;;;;5028239;28;20050;-59
2023/04/01 09:06:13;;;;;;;1.52;0.80;;;;;12.00;96969.00;;;;5028964;28;20048;-59
2023/04/01 09:08:49;;;;;;;1.20;0.93;;;;;12.00;96966.00;;;;5012130;28;20045;-59
2023/04/01 09:11:39;;;;;;;1.80;1.00;;;;;12.10;96963.00;;;;5012562;28;20141;-59
2023/04/01 09:14:29;;;;;;;0.57;0.55;;;;;12.10;96972.00;;;;5012760;28;20046;-58
2023/04/01 09:17:33;;;;;;;1.25;0.80;;;;;12.10;96984.00;;;;5011524;28;20042;-60
2023/04/01 09:20:37;;;;;;;0.95;0.60;;;;;12.00;96983.00;;;;5011739;28;20046;-59
2023/04/01 09:23:49;;;;;;;0.70;0.52;;;;;12.10;96981.00;;;;5016792;28;20057;-60
2023/04/01 09:27:00;;;;;;;0.50;0.40;;;;;12.10;96988.00;;;;5016566;28;20100;-56
2023/04/01 09:29:50;;;;;;;1.48;0.80;;;;;12.20;96985.00;;;;5027851;28;20100;-59
2023/04/01 09:32:33;;;;;;;0.75;0.60;;;;;12.30;96990.00;;;;5012085;28;20042;-56
2023/04/01 09:35:24;;;;;;;1.33;0.65;;;;;12.20;96979.00;;;;5013425;28;20062;-57
2023/04/01 09:38:19;;;;;;;0.70;0.70;;;;;12.20;96992.00;;;;5012069;28;20049;-59
2023/04/01 09:40:55;;;;;;;1.63;1.00;;;;;12.20;96999.00;;;;5011588;28;20565;-57
2023/04/01 09:44:03;;;;;;;0.93;0.80;;;;;12.10;96991.00;;;;5002832;28;20565;-56
2023/04/01 09:46:53;;;;;;;1.33;1.23;;;;;12.10;96997.00;;;;5011772;28;20056;-57
2023/04/01 09:49:26;;;;;;;2.17;0.90;;;;;12.10;96991.00;;;;5011290;28;20049;-59
2023/04/01 09:52:30;;;;;;;0.80;0.80;;;;;12.10;97001.00;;;;5013340;28;20067;-58
2023/04/01 09:55:16;;;;;;;1.10;1.00;;;;;12.20;96996.00;;;;5011411;28;20069;-59
2023/04/01 09:58:20;;;;;;;1.63;0.98;;;;;12.30;97001.00;;;;5028042;28;20072;-56
2023/04/01 10:01:42;;;;;;;1.45;0.70;;;;;12.40;97005.00;;;;5012973;28;20048;-57
2023/04/01 10:04:50;;;;;;;0.60;0.60;;;;;12.40;97004.00;;;;5011871;28;20589;-56
2023/04/01 10:07:31;;;;;;;0.50;0.50;;;;;12.40;97009.00;;;;5011576;28;20042;-56
2023/04/01 10:10:35;;;;;;;3.13;0.80;;;;;12.40;96996.00;;;;5012304;28;20491;-57
2023/04/01 10:13:11;;;;;;;1.65;0.55;;;;;12.30;97008.00;;;;5011629;28;20046;-55
2023/04/01 10:15:57;;;;;;;1.10;0.70;;;;;12.40;97010.00;;;;5011572;28;20096;-55
2023/04/01 10:19:03;;;;;;;1.13;0.60;;;;;12.60;97002.00;;;;5012318;28;20515;-60
2023/04/01 10:21:34;;;;;;;0.30;0.30;;;;;12.70;97014.00;;;;4974620;28;20043;-61
2023/04/01 10:24:40;;;;;;;0.90;0.68;;;;;12.80;97014.00;;;;5013972;28;20280;-59
2023/04/01 10:27:09;;;;;;;0.63;0.60;;;;;12.90;97003.00;;;;5011822;28;20093;-59
2023/04/01 10:30:20;;;;;;;1.23;0.80;;;;;13.10;97021.00;;;;5012531;28;20499;-59
2023/04/01 10:33:19;;;;;;;0.60;0.50;;;;;13.20;97003.00;;;;5012064;28;20116;-59
2023/04/01 10:36:03;;;;;;;2.58;1.50;;;;;13.20;97022.00;;;;5028609;28;20037;-59
2023/04/01 10:38:59;;;;;;;1.40;0.88;;;;;13.20;97002.00;;;;5011144;28;20149;-59
2023/04/01 10:41:40;;;;;;;0.60;0.55;;;;;13.20;97015.00;;;;5011429;28;20034;-59
2023/04/01 10:44:56;;;;;;;0.68;0.68;;;;;13.10;97013.00;;;;5012635;28;20052;-59
2023/04/01 10:47:53;;;;;;;1.10;0.50;;;;;13.10;97020.00;;;;5011127;28;20076;-58
2023/04/01 10:50:20;;;;;;;0.73;0.60;;;;;13.10;97024.00;;;;5010563;28;20042;-62
2023/04/01 10:53:32;;;;;;;0.90;0.60;;;;;13.00;97013.00;;;;5011297;28;20076;-62
2023/04/01 10:56:39;;;;;;;0.63;0.60;;;;;12.90;97021.00;;;;5013833;28;20053;-60
2023/04/01 11:00:15;;;;;;;0.50;0.50;;;;;12.90;97025.00;;;;5011868;28;20048;-59
2023/04/01 11:03:54;;;;;;;1.15;0.70;;;;;12.90;97027.00;;;;5012404;28;20120;-60
2023/04/01 11:07:05;;;;;;;2.22;1.10;;;;;13.00;97031.00;;;;4951503;29;20571;-59
2023/04/01 11:09:37;;;;;;;1.42;1.00;;;;;13.10;97033.00;;;;5010225;28;20050;-59
2023/04/01 11:12:13;;;;;;;0.52;0.50;;;;;13.10;97028.00;;;;5010822;28;20431;-59
2023/04/01 11:15:12;;;;;;;1.23;0.52;;;;;13.10;97029.00;;;;5010884;28;20054;-60
2023/04/01 11:17:57;;;;;;;1.00;0.70;;;;;13.20;97035.00;;;;5010605;28;20050;-59
2023/04/01 11:21:07;;;;;;;0.75;0.65;;;;;13.20;97038.00;;;;5010147;28;20120;-60
2023/04/01 11:24:06;;;;;;;0.82;0.70;;;;;13.10;97037.00;;;;5011906;28;20077;-60
2023/04/01 11:27:27;;;;;;;0.90;0.65;;;;;13.10;97038.00;;;;4992527;28;20042;-60
2023/04/01 11:30:07;;;;;;;1.15;1.05;;;;;13.20;97042.00;;;;5009953;28;20057;-60
2023/04/01 11:32:51;;;;;;;1.85;1.75;;;;;13.20;97040.00;;;;5010555;28;20049;-60
2023/04/01 11:35:37;;;;;;;1.55;1.17;;;;;13.10;97047.00;;;;5010577;28;20109;-60
2023/04/01 11:38:14;;;;;;;2.25;2.08;;;;;13.00;97045.00;;;;5014112;28;20049;-60
2023/04/01 11:41:25;;;;;;;0.65;0.65;;;;;13.10;97052.00;;;;5018735;28;20056;-63
2023/04/01 11:44:24;;;;;;;1.02;0.60;;;;;13.00;97058.00;;;;5019524;28;20054;-64
2023/04/01 11:47:44;;;;;;;2.35;0.85;;;;;13.00;97051.00;;;;5006440;28;20049;-62
2023/04/01 11:50:16;;;;;;;1.25;1.15;;;;;13.10;97059.00;;;;5019850;28;20042;-63
2023/04/01 11:53:10;;;;;;;3.55;2.67;;;;;13.20;97059.00;;;;5018864;28;20133;-62
2023/04/01 11:55:59;;;;;;;2.63;2.00;;;;;13.20;97061.00;;;;5019957;28;20041;-62
2023/04/01 11:58:37;;;;;;;1.55;1.42;;;;;13.30;97074.00;;;;5014516;28;20458;-59
2023/04/01 12:01:10;;;;;;;1.20;0.82;;;;;13.30;97073.00;;;;5015563;28;20042;-62
2023/04/01 12:03:44;;;;;;;1.55;0.90;;;;;13.40;97068.00;;;;5018961;28;20057;-63
2023/04/01 12:06:43;;;;;;;0.93;0.80;;;;;13.40;97084.00;;;;5018793;28;20048;-63
2023/04/01 12:09:22;;;;;;;1.25;1.10;;;;;13.30;97082.00;;;;5018792;28;20509;-63
2023/04/01 12:12:14;;;;;;;1.50;0.93;;;;;13.30;97089.00;;;;5018121;28;20172;-58
2023/04/01 12:14:57;;;;;;;1.00;0.85;;;;;13.20;97093.00;;;;5014581;28;20045;-58
2023/04/01 12:17:57;;;;;;;0.60;0.60;;;;;13.10;97090.00;;;;5029846;28;20120;-58
2023/04/01 12:20:39;;;;;;;0.93;0.70;;;;;13.00;97091.00;;;;4994343;28;20057;-61
2023/04/01 12:23:47;;;;;;;0.47;0.47;;;;;12.90;97101.00;;;;5014555;28;20534;-59
2023/04/01 12:26:20;;;;;;;1.00;0.90;;;;;12.80;97086.00;;;;5013009;28;20466;-58
2023/04/01 12:29:09;;;;;;;0.82;0.60;;;;;12.70;97108.00;;;;5013862;28;20096;-58
2023/04/01 12:31:57;;;;;;;0.50;0.50;;;;;12.60;97113.00;;;;5014449;28;20104;-56
2023/04/01 12:34:52;;;;;;;0.73;0.65;;;;;12.40;97106.00;;;;5014513;28;20554;-59
2023/04/01 12:37:40;;;;;;;1.45;0.80;;;;;12.40;97110.00;;;;5014550;28;20108;-60
2023/04/01 12:40:31;;;;;;;1.00;0.60;;;;;12.30;97107.00;;;;5016400;28;20053;-61
2023/04/01 12:43:27;;;;;;;1.77;1.27;;;;;12.30;97098.00;;;;5020223;28;20395;-62
2023/04/01 12:46:20;;;;;;;2.53;2.00;;;;;12.40;97108.00;;;;5020190;28;20453;-62
2023/04/01 12:49:20;;;;;;;0.98;0.75;;;;;12.40;97105.00;;;;4991537;28;20120;-62
2023/04/01 12:51:53;;;;;;;3.33;3.00;;;;;12.30;97095.00;;;;5019153;28;20050;-61
2023/04/01 12:54:47;;;;;;;2.97;1.38;;;;;12.40;97101.00;;;;5014261;28;20461;-61
2023/04/01 12:57:23;;;;;;;1.80;1.30;;;;;12.30;97107.00;;;;5013971;28;20046;-59
2023/04/01 12:59:52;;;;;;;2.67;1.83;;;;;12.30;97101.00;;;;5012077;28;20133;-58
2023/04/01 13:02:40;;;;;;;1.73;1.40;;;;;12.50;97118.00;;;;5016682;28;20503;-60
2023/04/01 13:05:52;;;;;;;2.65;2.25;;;;;12.50;97113.00;;;;5018110;28;20049;-62
2023/04/01 13:08:36;;;;;;;1.60;0.88;;;;;12.60;97115.00;;;;4994521;28;20057;-56
2023/04/01 13:11:13;;;;;;;1.60;1.13;;;;;12.80;97120.00;;;;5013440;28;20104;-57
2023/04/01 13:13:59;;;;;;;0.88;0.88;;;;;12.90;97116.00;;;;5013403;28;20101;-60
2023/04/01 13:16:55;;;;;;;1.20;0.63;;;;;12.90;97116.00;;;;5013309;28;20519;-59
2023/04/01 13:19:35;;;;;;;9.32;3.25;;;;;12.90;97127.00;;;;5013476;28;20057;-61
2023/04/01 13:22:06;;;;;;;8.18;2.85;;;;;12.80;97124.00;;;;5016250;28;20045;-62
2023/04/01 13:24:45;;;;;;;1.58;1.05;;;;;12.80;97125.00;;;;5018923;28;20041;-62